Ute, Iowa
Current Conditions -  °F | °C
As of 10:15 AM on Monday 22 Dec 2014 (Local Time) from KDNS Reporting Station
Haze Haze  
Wind Chill: 31°   Ceiling: 800
Heat Index: 39°   Visibility: 5mi
Dew Point: 39°   Wind: 15mph
Humidity: 100%   Direction: 150°SSE
Pressure: 29.5"   Gusts: NA
Location:  42.05°N, 95.71°W
Report Text: KDNS 221615Z AUTO 15013KT 5SM BR OVC008 04/04 A2950 RMK AO2
Loading
Personal Weather Stations






























Interactive Weather Map New forecast layout! Learn more

10-Day Weather Forecast

Advertisements
Track Severe Weather on mobile